Time;durP1;ratioP1;P1;durP2;ratioP2;P2;SDS_P1;SDS_P2;PMS_P1;PMS_P2;Temp;Humidity;BMP_temperature;BMP_pressure;BME280_temperature;BME280_humidity;BME280_pressure;Samples;Min_cycle;Max_cycle;Signal;HPM_P1;HPM_P2
2021/12/18 00:00:27;;;;;;;5.50;1.95;;;;;;;;;;5089710;28;20055;-75
2021/12/18 00:02:53;;;;;;;4.90;1.67;;;;;;;;;;5090720;28;20479;-75
2021/12/18 00:05:19;;;;;;;4.78;1.85;;;;;;;;;;5090559;28;20040;-75
2021/12/18 00:07:45;;;;;;;4.93;1.83;;;;;;;;;;5087397;28;20047;-75
2021/12/18 00:10:11;;;;;;;5.97;2.30;;;;;;;;;;5086397;28;20044;-75
2021/12/18 00:12:39;;;;;;;4.50;1.83;;;;;;;;;;5089491;28;20123;-75
2021/12/18 00:15:05;;;;;;;5.70;2.33;;;;;;;;;;5089681;28;20051;-75
2021/12/18 00:17:31;;;;;;;5.05;2.22;;;;;;;;;;5089838;28;20048;-75
2021/12/18 00:19:57;;;;;;;6.60;1.88;;;;;;;;;;5089963;28;20052;-75
2021/12/18 00:22:23;;;;;;;4.93;1.88;;;;;;;;;;5089285;28;20044;-75
2021/12/18 00:24:49;;;;;;;3.83;1.50;;;;;;;;;;5089881;28;20040;-75
2021/12/18 00:27:15;;;;;;;4.85;2.05;;;;;;;;;;5088594;28;20058;-75
2021/12/18 00:29:41;;;;;;;5.07;1.73;;;;;;;;;;5089725;28;20405;-75
2021/12/18 00:32:07;;;;;;;4.28;1.70;;;;;;;;;;5089802;28;20127;-75
2021/12/18 00:34:33;;;;;;;4.35;1.85;;;;;;;;;;5089166;28;20494;-75
2021/12/18 00:36:59;;;;;;;5.10;2.10;;;;;;;;;;5089684;28;20036;-75
2021/12/18 00:39:28;;;;;;;5.55;1.80;;;;;;;;;;5089709;28;20059;-75
2021/12/18 00:42:19;;;;;;;4.40;1.80;;;;;;;;;;5087414;28;20119;-75
2021/12/18 00:44:45;;;;;;;4.45;1.70;;;;;;;;;;5089767;28;20473;-75
2021/12/18 00:47:11;;;;;;;4.07;1.63;;;;;;;;;;5071539;28;20051;-74
2021/12/18 00:49:37;;;;;;;3.88;1.60;;;;;;;;;;5088842;28;20514;-77
2021/12/18 00:52:04;;;;;;;5.68;1.77;;;;;;;;;;5089182;28;20040;-76
2021/12/18 00:54:31;;;;;;;8.25;1.70;;;;;;;;;;5089384;28;20127;-77
2021/12/18 00:56:57;;;;;;;4.80;1.40;;;;;;;;;;5087441;28;20048;-77
2021/12/18 00:59:23;;;;;;;5.28;1.55;;;;;;;;;;5089058;28;20042;-77
2021/12/18 01:01:49;;;;;;;7.22;1.63;;;;;;;;;;5088765;28;20048;-77
2021/12/18 01:04:16;;;;;;;3.83;1.30;;;;;;;;;;5088767;28;20043;-77
2021/12/18 01:06:42;;;;;;;4.20;1.50;;;;;;;;;;5088754;28;20470;-77
2021/12/18 01:09:08;;;;;;;3.83;1.40;;;;;;;;;;5088198;28;20040;-77
2021/12/18 01:11:45;;;;;;;2.90;1.30;;;;;;;;;;5088483;28;20044;-76
2021/12/18 01:16:54;;;;;;;3.47;1.30;;;;;;;;;;5088954;28;20048;-76
2021/12/18 01:24:50;;;;;;;5.80;1.70;;;;;;;;;;5086267;28;20480;-75
2021/12/18 01:27:16;;;;;;;4.25;1.52;;;;;;;;;;5087715;28;20070;-75
2021/12/18 01:29:43;;;;;;;3.63;1.30;;;;;;;;;;5088565;28;20036;-75
2021/12/18 01:32:09;;;;;;;3.35;1.30;;;;;;;;;;5087932;28;20069;-75
2021/12/18 01:34:35;;;;;;;3.70;1.30;;;;;;;;;;5088607;28;20456;-75
2021/12/18 01:37:02;;;;;;;4.18;1.08;;;;;;;;;;5088398;28;20051;-75
2021/12/18 01:39:28;;;;;;;4.15;1.33;;;;;;;;;;5088702;28;20109;-75
2021/12/18 01:44:50;;;;;;;2.72;1.00;;;;;;;;;;5088088;28;20081;-75
2021/12/18 01:52:39;;;;;;;4.93;1.58;;;;;;;;;;5087377;28;20059;-75
2021/12/18 01:55:05;;;;;;;2.50;1.17;;;;;;;;;;5087922;28;20040;-75
2021/12/18 01:57:32;;;;;;;3.25;1.30;;;;;;;;;;5088089;28;20048;-75
2021/12/18 01:59:58;;;;;;;8.80;1.42;;;;;;;;;;5086148;28;20044;-75
2021/12/18 02:02:24;;;;;;;3.38;1.20;;;;;;;;;;5086836;28;20047;-75
2021/12/18 02:04:50;;;;;;;2.80;0.98;;;;;;;;;;5088140;28;20086;-75
2021/12/18 02:07:17;;;;;;;5.43;1.80;;;;;;;;;;5087406;28;20044;-75
2021/12/18 02:12:17;;;;;;;2.85;1.08;;;;;;;;;;5088022;28;20036;-75
2021/12/18 02:20:22;;;;;;;5.25;1.10;;;;;;;;;;5085592;28;20127;-76
2021/12/18 02:22:48;;;;;;;2.38;1.17;;;;;;;;;;5087490;28;20816;-78
2021/12/18 02:25:14;;;;;;;7.22;1.40;;;;;;;;;;5086122;28;20460;-78
2021/12/18 02:27:40;;;;;;;2.95;1.08;;;;;;;;;;5086517;28;20040;-78
2021/12/18 02:30:08;;;;;;;2.90;0.95;;;;;;;;;;5087129;28;20033;-78
2021/12/18 02:32:34;;;;;;;3.80;1.30;;;;;;;;;;5087320;28;20052;-78
2021/12/18 02:35:04;;;;;;;4.13;0.90;;;;;;;;;;5086425;28;20136;-78
2021/12/18 02:37:36;;;;;;;6.05;1.42;;;;;;;;;;5084343;28;20059;-77
2021/12/18 02:42:30;;;;;;;4.53;1.48;;;;;;;;;;5086916;28;20044;-77
2021/12/18 02:44:56;;;;;;;3.08;0.93;;;;;;;;;;5087748;28;20041;-77
2021/12/18 02:47:22;;;;;;;3.45;1.13;;;;;;;;;;5087504;28;20043;-77
2021/12/18 02:49:49;;;;;;;3.30;1.10;;;;;;;;;;5086049;28;20048;-77
2021/12/18 02:52:17;;;;;;;2.42;1.10;;;;;;;;;;5087083;28;20115;-77
2021/12/18 02:54:43;;;;;;;2.53;1.05;;;;;;;;;;5086092;28;20146;-77
2021/12/18 02:57:10;;;;;;;3.05;1.25;;;;;;;;;;5087284;28;20517;-77
2021/12/18 02:59:47;;;;;;;2.80;1.15;;;;;;;;;;5086990;28;20056;-77
2021/12/18 03:02:14;;;;;;;2.58;0.80;;;;;;;;;;5085502;28;20054;-78
2021/12/18 03:04:42;;;;;;;3.22;1.00;;;;;;;;;;5087435;28;20402;-78
2021/12/18 03:07:10;;;;;;;2.97;1.20;;;;;;;;;;5086895;28;20044;-78
2021/12/18 03:25:30;;;;;;;6.03;1.30;;;;;;;;;;5084903;28;20432;-79
2021/12/18 03:28:03;;;;;;;4.10;0.98;;;;;;;;;;5087789;28;20047;-79
2021/12/18 03:30:29;;;;;;;11.95;1.10;;;;;;;;;;5085688;28;20131;-80
2021/12/18 03:32:55;;;;;;;7.07;1.00;;;;;;;;;;5068672;28;20043;-80
2021/12/18 03:35:21;;;;;;;3.63;0.70;;;;;;;;;;5085904;28;20420;-79
2021/12/18 03:37:48;;;;;;;3.40;1.05;;;;;;;;;;5086204;28;20044;-75
2021/12/18 03:40:16;;;;;;;5.38;0.80;;;;;;;;;;5086875;28;20065;-75
2021/12/18 03:42:43;;;;;;;4.57;0.95;;;;;;;;;;5086900;28;20040;-76
2021/12/18 03:45:09;;;;;;;5.00;1.00;;;;;;;;;;5087447;28;20512;-76
2021/12/18 03:47:36;;;;;;;4.28;0.80;;;;;;;;;;5086875;28;20512;-77
2021/12/18 03:50:02;;;;;;;9.43;0.90;;;;;;;;;;5089658;28;20505;-77
2021/12/18 03:52:28;;;;;;;2.63;0.80;;;;;;;;;;5090698;28;20405;-77
2021/12/18 03:54:54;;;;;;;4.57;1.30;;;;;;;;;;5090733;28;20401;-77
2021/12/18 03:57:20;;;;;;;9.18;1.02;;;;;;;;;;5090112;28;20482;-77
2021/12/18 03:59:46;;;;;;;4.03;2.35;;;;;;;;;;5090135;28;20062;-76
2021/12/18 04:02:12;;;;;;;6.22;1.27;;;;;;;;;;5088551;28;20044;-76
2021/12/18 04:04:38;;;;;;;1.83;0.80;;;;;;;;;;5071848;28;20040;-76
2021/12/18 04:07:06;;;;;;;4.25;0.90;;;;;;;;;;5089238;28;20074;-76
2021/12/18 04:09:33;;;;;;;1.83;0.98;;;;;;;;;;5088186;28;20054;-77
2021/12/18 04:12:00;;;;;;;4.63;0.80;;;;;;;;;;5088077;28;20105;-77
2021/12/18 04:14:26;;;;;;;3.63;0.60;;;;;;;;;;5090062;28;20043;-77
2021/12/18 04:16:52;;;;;;;1.95;0.70;;;;;;;;;;5090061;28;20410;-77
2021/12/18 04:19:19;;;;;;;1.77;0.68;;;;;;;;;;5071445;28;20048;-77
2021/12/18 04:21:46;;;;;;;1.50;0.60;;;;;;;;;;5087979;28;20582;-77
2021/12/18 04:24:12;;;;;;;4.43;0.68;;;;;;;;;;5089366;28;20410;-77
2021/12/18 04:26:38;;;;;;;2.95;0.77;;;;;;;;;;5090002;28;20383;-77
2021/12/18 04:29:06;;;;;;;3.50;0.80;;;;;;;;;;5089955;28;20444;-77
2021/12/18 04:31:32;;;;;;;3.10;0.98;;;;;;;;;;5089010;28;20051;-77
2021/12/18 04:33:58;;;;;;;3.40;0.90;;;;;;;;;;5090016;28;20169;-77
2021/12/18 04:36:25;;;;;;;3.47;0.80;;;;;;;;;;5089575;28;20112;-77
2021/12/18 04:38:51;;;;;;;2.15;0.70;;;;;;;;;;5089786;28;20075;-77
2021/12/18 04:41:35;;;;;;;2.67;1.00;;;;;;;;;;5089452;28;20483;-77
2021/12/18 04:44:01;;;;;;;1.90;0.70;;;;;;;;;;5088514;28;20048;-77
2021/12/18 04:46:27;;;;;;;3.58;0.68;;;;;;;;;;5089901;28;20122;-77
2021/12/18 04:48:53;;;;;;;3.08;0.77;;;;;;;;;;5088342;28;20429;-77
2021/12/18 04:51:19;;;;;;;2.65;1.00;;;;;;;;;;5088460;28;20557;-77
2021/12/18 04:53:45;;;;;;;2.78;0.60;;;;;;;;;;5087633;28;20433;-77
2021/12/18 04:56:11;;;;;;;1.42;0.80;;;;;;;;;;5085686;28;20040;-77
2021/12/18 04:58:37;;;;;;;3.22;0.90;;;;;;;;;;5088610;28;20119;-77
2021/12/18 05:01:03;;;;;;;0.80;0.55;;;;;;;;;;5088469;28;20154;-77
2021/12/18 05:03:30;;;;;;;2.50;0.70;;;;;;;;;;5088076;28;20048;-77
2021/12/18 05:05:59;;;;;;;1.00;0.50;;;;;;;;;;5087814;28;20125;-77
2021/12/18 05:08:25;;;;;;;3.83;0.70;;;;;;;;;;5088976;28;20040;-77
2021/12/18 05:10:51;;;;;;;1.42;0.57;;;;;;;;;;5088448;28;20124;-76
2021/12/18 05:13:17;;;;;;;2.10;0.65;;;;;;;;;;5089137;28;20060;-76
2021/12/18 05:15:44;;;;;;;3.88;0.80;;;;;;;;;;5088243;28;20047;-76
2021/12/18 05:18:10;;;;;;;1.63;0.65;;;;;;;;;;5089037;28;20126;-76
2021/12/18 05:20:36;;;;;;;1.38;0.60;;;;;;;;;;5086254;28;20067;-76
2021/12/18 05:23:02;;;;;;;2.17;1.08;;;;;;;;;;5088348;28;20094;-76
2021/12/18 05:25:28;;;;;;;1.77;0.70;;;;;;;;;;5087494;28;20516;-76
2021/12/18 05:27:54;;;;;;;3.53;1.00;;;;;;;;;;5088047;28;20039;-76
2021/12/18 05:30:20;;;;;;;0.82;0.47;;;;;;;;;;5086764;28;20500;-76
2021/12/18 05:32:49;;;;;;;1.90;0.60;;;;;;;;;;5088291;28;20043;-77
2021/12/18 05:35:16;;;;;;;2.45;0.68;;;;;;;;;;5087862;28;20044;-77
2021/12/18 05:37:47;;;;;;;1.13;0.60;;;;;;;;;;5084376;28;20126;-77
2021/12/18 05:40:14;;;;;;;2.35;0.90;;;;;;;;;;5087995;28;20044;-77
2021/12/18 05:42:40;;;;;;;3.28;0.70;;;;;;;;;;5087201;28;20089;-77
2021/12/18 05:45:07;;;;;;;1.13;0.70;;;;;;;;;;5086019;28;20052;-77
2021/12/18 05:47:33;;;;;;;2.15;0.70;;;;;;;;;;5086899;28;20047;-78
2021/12/18 05:49:59;;;;;;;1.65;0.60;;;;;;;;;;5087353;28;20032;-78
2021/12/18 05:52:26;;;;;;;2.03;0.80;;;;;;;;;;5087733;28;20051;-78
2021/12/18 05:54:52;;;;;;;1.50;0.60;;;;;;;;;;5087342;28;20452;-78
2021/12/18 05:57:18;;;;;;;1.40;0.70;;;;;;;;;;5087076;28;20048;-78
2021/12/18 05:59:44;;;;;;;2.40;0.60;;;;;;;;;;5087835;28;20053;-78
2021/12/18 06:02:10;;;;;;;2.33;0.52;;;;;;;;;;5086110;28;20048;-78
2021/12/18 06:04:37;;;;;;;2.35;0.70;;;;;;;;;;5087127;28;20036;-78
2021/12/18 06:07:05;;;;;;;1.15;0.57;;;;;;;;;;5087274;28;20036;-78
2021/12/18 06:09:32;;;;;;;1.45;0.47;;;;;;;;;;5087081;28;20113;-78
2021/12/18 06:11:58;;;;;;;1.10;0.52;;;;;;;;;;5086638;28;20054;-77
2021/12/18 06:14:24;;;;;;;1.08;0.45;;;;;;;;;;5087351;28;20044;-77
2021/12/18 06:16:51;;;;;;;2.95;0.70;;;;;;;;;;5084457;28;20040;-77
2021/12/18 06:19:16;;;;;;;1.23;0.50;;;;;;;;;;5087167;28;20494;-77
2021/12/18 06:21:43;;;;;;;2.20;0.40;;;;;;;;;;5086420;28;20081;-77
2021/12/18 06:24:09;;;;;;;2.38;0.73;;;;;;;;;;5087208;28;20054;-77
2021/12/18 06:26:35;;;;;;;1.30;0.50;;;;;;;;;;5084609;28;20048;-77
2021/12/18 06:29:01;;;;;;;2.47;0.50;;;;;;;;;;5087497;28;20123;-77
2021/12/18 06:31:27;;;;;;;0.73;0.50;;;;;;;;;;5068803;28;20072;-77
2021/12/18 06:33:53;;;;;;;1.30;0.80;;;;;;;;;;5087030;28;20036;-78
2021/12/18 06:36:19;;;;;;;5.50;0.82;;;;;;;;;;5085149;28;20085;-78
2021/12/18 06:38:45;;;;;;;1.20;0.50;;;;;;;;;;5086865;28;20044;-78
2021/12/18 06:41:11;;;;;;;5.32;0.70;;;;;;;;;;5086797;28;20044;-79
2021/12/18 06:43:37;;;;;;;3.88;0.80;;;;;;;;;;5087170;28;20036;-79
2021/12/18 06:46:03;;;;;;;3.78;0.60;;;;;;;;;;5086760;28;20036;-79
2021/12/18 06:48:29;;;;;;;5.78;0.90;;;;;;;;;;5085615;28;20494;-80
2021/12/18 06:50:55;;;;;;;2.00;0.57;;;;;;;;;;5084531;28;20098;-79
2021/12/18 06:53:21;;;;;;;6.43;0.60;;;;;;;;;;5086634;28;20048;-79
2021/12/18 06:55:47;;;;;;;2.15;0.60;;;;;;;;;;5087179;28;20500;-79
2021/12/18 06:58:13;;;;;;;1.33;0.50;;;;;;;;;;5087169;28;20052;-79
2021/12/18 07:00:39;;;;;;;4.07;0.60;;;;;;;;;;5086261;28;20036;-79
2021/12/18 07:03:05;;;;;;;1.98;0.40;;;;;;;;;;5085670;28;20044;-79
2021/12/18 07:05:31;;;;;;;5.80;1.48;;;;;;;;;;5085543;28;20044;-79
2021/12/18 07:07:57;;;;;;;2.55;0.75;;;;;;;;;;5086187;28;20040;-79
2021/12/18 07:10:24;;;;;;;2.55;0.47;;;;;;;;;;5084943;28;20045;-79
2021/12/18 07:12:50;;;;;;;0.95;0.40;;;;;;;;;;5085926;28;20044;-79
2021/12/18 07:15:16;;;;;;;1.48;0.50;;;;;;;;;;5086780;28;20436;-79
2021/12/18 07:17:42;;;;;;;0.70;0.40;;;;;;;;;;5086824;28;20036;-78
2021/12/18 07:20:09;;;;;;;2.65;0.85;;;;;;;;;;5086197;28;20040;-79
2021/12/18 07:22:35;;;;;;;1.23;0.60;;;;;;;;;;5086558;28;20042;-79
2021/12/18 07:25:01;;;;;;;2.60;0.40;;;;;;;;;;5088602;28;20044;-78
2021/12/18 07:27:27;;;;;;;1.60;0.55;;;;;;;;;;5090361;28;20539;-77
2021/12/18 07:29:53;;;;;;;0.88;0.40;;;;;;;;;;5089523;28;20083;-77
2021/12/18 07:32:19;;;;;;;0.77;0.30;;;;;;;;;;5090487;28;20137;-76
2021/12/18 07:34:45;;;;;;;4.82;0.85;;;;;;;;;;5089621;28;20064;-77
2021/12/18 07:37:11;;;;;;;1.27;0.65;;;;;;;;;;5089773;28;20101;-78
2021/12/18 07:39:37;;;;;;;2.33;0.60;;;;;;;;;;5089467;28;20039;-77
2021/12/18 07:42:03;;;;;;;2.35;0.40;;;;;;;;;;5089358;28;20040;-78
2021/12/18 07:44:29;;;;;;;2.78;0.60;;;;;;;;;;5090025;28;20048;-78
2021/12/18 07:46:55;;;;;;;2.45;0.40;;;;;;;;;;5089484;28;20036;-78
2021/12/18 07:49:21;;;;;;;1.73;0.47;;;;;;;;;;5089195;28;20040;-78
2021/12/18 07:51:47;;;;;;;0.75;0.40;;;;;;;;;;5090124;28;20134;-78
2021/12/18 07:54:13;;;;;;;0.93;0.50;;;;;;;;;;5088654;28;20410;-80
2021/12/18 07:56:39;;;;;;;1.08;0.40;;;;;;;;;;5089449;28;20494;-78
2021/12/18 07:59:05;;;;;;;0.90;0.40;;;;;;;;;;5089588;28;20503;-78
2021/12/18 08:01:32;;;;;;;0.80;0.43;;;;;;;;;;5090214;28;20052;-77
2021/12/18 08:03:57;;;;;;;0.80;0.40;;;;;;;;;;5090119;28;20050;-78
2021/12/18 08:06:24;;;;;;;0.57;0.40;;;;;;;;;;5089431;28;20490;-78
2021/12/18 08:08:50;;;;;;;4.75;0.50;;;;;;;;;;5089647;28;20083;-79
2021/12/18 08:11:16;;;;;;;1.17;0.40;;;;;;;;;;5090060;28;20784;-78
2021/12/18 08:13:42;;;;;;;2.10;0.60;;;;;;;;;;5090478;28;20048;-80
2021/12/18 08:16:08;;;;;;;0.70;0.40;;;;;;;;;;5090503;28;20531;-81
2021/12/18 08:18:34;;;;;;;1.60;0.40;;;;;;;;;;5088736;28;20917;-79
2021/12/18 08:21:01;;;;;;;1.92;0.50;;;;;;;;;;5089956;28;20115;-80
2021/12/18 08:23:27;;;;;;;1.63;0.50;;;;;;;;;;5088619;28;20055;-78
2021/12/18 08:25:53;;;;;;;1.02;0.50;;;;;;;;;;5089645;28;20456;-77
2021/12/18 08:28:19;;;;;;;3.35;0.43;;;;;;;;;;5089595;28;20044;-79
2021/12/18 08:30:45;;;;;;;0.93;0.50;;;;;;;;;;5089647;28;20135;-79
2021/12/18 08:33:11;;;;;;;12.13;0.70;;;;;;;;;;5086756;28;20044;-79
2021/12/18 08:35:37;;;;;;;4.20;0.80;;;;;;;;;;5088670;28;20075;-79
2021/12/18 08:38:04;;;;;;;3.30;0.70;;;;;;;;;;5089552;28;20485;-79
2021/12/18 08:40:31;;;;;;;7.50;1.17;;;;;;;;;;5089765;28;20394;-78
2021/12/18 08:42:57;;;;;;;4.72;0.65;;;;;;;;;;5089597;28;20509;-79
2021/12/18 08:45:23;;;;;;;3.78;0.63;;;;;;;;;;5089542;28;20448;-77
2021/12/18 08:47:52;;;;;;;4.50;1.38;;;;;;;;;;5088969;28;20486;-78
2021/12/18 08:50:19;;;;;;;1.90;0.63;;;;;;;;;;5087670;28;20067;-76
2021/12/18 08:52:45;;;;;;;3.65;0.70;;;;;;;;;;5089925;28;20048;-79
2021/12/18 08:55:11;;;;;;;3.13;0.68;;;;;;;;;;5089606;28;20040;-76
2021/12/18 08:57:37;;;;;;;2.78;0.50;;;;;;;;;;5089740;28;20197;-78
2021/12/18 09:00:05;;;;;;;3.50;0.75;;;;;;;;;;5088002;28;21581;-78
2021/12/18 09:02:31;;;;;;;5.82;1.15;;;;;;;;;;5077243;28;20083;-81
2021/12/18 09:04:57;;;;;;;4.85;0.95;;;;;;;;;;5089677;28;20069;-79
2021/12/18 09:07:25;;;;;;;2.58;0.77;;;;;;;;;;5090852;28;20410;-76
2021/12/18 09:09:51;;;;;;;3.25;0.80;;;;;;;;;;5089089;28;20044;-79
2021/12/18 09:12:17;;;;;;;3.00;0.63;;;;;;;;;;5089748;28;20203;-78
2021/12/18 09:14:43;;;;;;;1.85;0.60;;;;;;;;;;5089939;28;20570;-76
2021/12/18 09:17:10;;;;;;;2.53;0.70;;;;;;;;;;5090756;28;20052;-77
2021/12/18 09:19:36;;;;;;;2.17;0.65;;;;;;;;;;5090368;28;20044;-80
2021/12/18 09:22:04;;;;;;;4.68;0.80;;;;;;;;;;5091090;28;20447;-77
2021/12/18 09:24:30;;;;;;;3.05;0.90;;;;;;;;;;5088763;28;20521;-78
2021/12/18 09:26:56;;;;;;;2.88;0.70;;;;;;;;;;5091002;28;20043;-79
2021/12/18 09:29:22;;;;;;;4.20;0.80;;;;;;;;;;5090370;28;20134;-82
2021/12/18 09:31:48;;;;;;;3.63;0.80;;;;;;;;;;5088398;28;20048;-77
2021/12/18 09:34:14;;;;;;;3.63;0.70;;;;;;;;;;5091128;28;20047;-79
2021/12/18 09:36:40;;;;;;;4.05;1.00;;;;;;;;;;5069122;28;20120;-77
2021/12/18 09:39:07;;;;;;;3.13;0.80;;;;;;;;;;5090540;28;20044;-78
2021/12/18 09:41:33;;;;;;;2.10;0.95;;;;;;;;;;5090488;28;20055;-80
2021/12/18 09:43:59;;;;;;;2.95;1.17;;;;;;;;;;5086719;28;20047;-76
2021/12/18 09:46:26;;;;;;;3.40;1.20;;;;;;;;;;5089876;28;20059;-77
2021/12/18 09:48:52;;;;;;;3.83;1.48;;;;;;;;;;5088068;28;20062;-79
2021/12/18 09:51:24;;;;;;;4.35;1.40;;;;;;;;;;5088543;28;20039;-78
2021/12/18 09:53:52;;;;;;;3.15;1.70;;;;;;;;;;5071968;28;20055;-77
2021/12/18 09:56:19;;;;;;;5.45;1.80;;;;;;;;;;5088707;28;20409;-77
2021/12/18 09:58:45;;;;;;;6.25;2.38;;;;;;;;;;5090255;28;20080;-74
2021/12/18 10:01:11;;;;;;;5.05;2.00;;;;;;;;;;5089335;28;20098;-77
2021/12/18 10:03:46;;;;;;;7.07;2.60;;;;;;;;;;5088503;28;20409;-77
2021/12/18 10:06:35;;;;;;;6.43;2.38;;;;;;;;;;5089783;28;20044;-78
2021/12/18 10:09:01;;;;;;;6.27;2.50;;;;;;;;;;5089742;28;20177;-76
2021/12/18 10:11:27;;;;;;;7.07;3.08;;;;;;;;;;5089665;28;20056;-75
2021/12/18 10:13:55;;;;;;;6.57;3.08;;;;;;;;;;5089996;28;20497;-77
2021/12/18 10:16:22;;;;;;;7.63;3.00;;;;;;;;;;5088965;28;20434;-79
2021/12/18 10:18:49;;;;;;;6.78;3.40;;;;;;;;;;5090074;28;20040;-77
2021/12/18 10:21:20;;;;;;;7.20;3.70;;;;;;;;;;5090033;28;20048;-77
2021/12/18 10:23:46;;;;;;;9.15;4.28;;;;;;;;;;5090072;28;20106;-75
2021/12/18 10:26:31;;;;;;;6.85;4.25;;;;;;;;;;5089845;28;20044;-76
2021/12/18 10:28:57;;;;;;;8.75;4.45;;;;;;;;;;5076702;28;20040;-76
2021/12/18 10:31:43;;;;;;;8.00;4.80;;;;;;;;;;5084808;28;20122;-74
2021/12/18 10:34:23;;;;;;;9.75;4.93;;;;;;;;;;5079959;28;20036;-77
2021/12/18 10:37:08;;;;;;;10.40;5.32;;;;;;;;;;5088375;28;20059;-78
2021/12/18 10:39:35;;;;;;;9.95;5.38;;;;;;;;;;5089848;28;20036;-75
2021/12/18 10:42:20;;;;;;;9.38;5.05;;;;;;;;;;5089478;28;20040;-74
2021/12/18 10:45:04;;;;;;;10.00;5.05;;;;;;;;;;5088916;28;20132;-77
2021/12/18 10:47:47;;;;;;;8.20;5.40;;;;;;;;;;5088697;28;20036;-77
2021/12/18 10:50:26;;;;;;;11.48;5.85;;;;;;;;;;5069248;28;20453;-76
2021/12/18 10:53:02;;;;;;;9.20;5.70;;;;;;;;;;5072698;28;20075;-75
2021/12/18 10:55:29;;;;;;;10.68;6.25;;;;;;;;;;5078774;28;20509;-75
2021/12/18 10:57:55;;;;;;;12.90;6.47;;;;;;;;;;5090468;28;20379;-78
2021/12/18 11:00:35;;;;;;;10.77;6.07;;;;;;;;;;5093039;28;20040;-79
2021/12/18 11:03:20;;;;;;;11.75;6.57;;;;;;;;;;5092711;28;20101;-77
2021/12/18 11:06:06;;;;;;;11.23;6.82;;;;;;;;;;5093767;28;20044;-77
2021/12/18 11:08:33;;;;;;;11.25;6.60;;;;;;;;;;5092982;28;20044;-77
2021/12/18 11:13:48;;;;;;;11.32;6.30;;;;;;;;;;5093471;28;20495;-76
2021/12/18 11:16:16;;;;;;;11.75;6.97;;;;;;;;;;5092433;28;20050;-75
2021/12/18 11:18:42;;;;;;;12.82;7.30;;;;;;;;;;5092074;28;20048;-74
2021/12/18 11:21:08;;;;;;;10.77;6.85;;;;;;;;;;5093310;28;20130;-74
2021/12/18 11:23:55;;;;;;;18.85;7.68;;;;;;;;;;5092722;28;20047;-75
2021/12/18 11:26:23;;;;;;;13.90;7.65;;;;;;;;;;5093129;28;20043;-75
2021/12/18 11:28:50;;;;;;;12.05;7.80;;;;;;;;;;5093330;28;20144;-77
2021/12/18 11:31:16;;;;;;;15.55;8.32;;;;;;;;;;5092270;28;20486;-78
2021/12/18 11:33:42;;;;;;;15.38;8.70;;;;;;;;;;5092587;28;20135;-74
2021/12/18 11:36:09;;;;;;;16.55;9.30;;;;;;;;;;5093027;28;20732;-78
2021/12/18 11:38:37;;;;;;;13.82;8.55;;;;;;;;;;5092724;28;20391;-77
2021/12/18 11:41:03;;;;;;;15.48;9.40;;;;;;;;;;5091715;28;20521;-81
2021/12/18 11:43:32;;;;;;;16.30;9.05;;;;;;;;;;5092664;28;20063;-79
2021/12/18 11:45:58;;;;;;;18.63;9.95;;;;;;;;;;5092516;28;20048;-78
2021/12/18 11:48:24;;;;;;;15.20;9.85;;;;;;;;;;5082751;28;20072;-77
2021/12/18 11:50:50;;;;;;;16.98;9.68;;;;;;;;;;5079904;28;20036;-77
2021/12/18 11:53:18;;;;;;;15.77;9.75;;;;;;;;;;5093042;28;20047;-77
2021/12/18 11:55:50;;;;;;;16.38;9.77;;;;;;;;;;5092303;28;20087;-76
2021/12/18 11:58:16;;;;;;;17.30;10.35;;;;;;;;;;5091966;28;20043;-76
2021/12/18 12:00:43;;;;;;;17.00;10.77;;;;;;;;;;5092715;28;20154;-77
2021/12/18 12:03:10;;;;;;;16.40;10.15;;;;;;;;;;5087619;28;20105;-77
2021/12/18 12:05:45;;;;;;;17.73;9.65;;;;;;;;;;5082256;28;20044;-77
2021/12/18 12:08:30;;;;;;;16.30;9.85;;;;;;;;;;5079394;28;20047;-76
2021/12/18 12:11:16;;;;;;;16.83;9.85;;;;;;;;;;5088430;28;20055;-77
2021/12/18 12:13:51;;;;;;;16.33;9.40;;;;;;;;;;5091672;28;20109;-78
2021/12/18 12:16:18;;;;;;;17.15;10.18;;;;;;;;;;5087290;28;20043;-80
2021/12/18 12:19:03;;;;;;;19.35;11.13;;;;;;;;;;5082748;28;20076;-80
2021/12/18 12:21:38;;;;;;;17.23;10.50;;;;;;;;;;5092300;28;20040;-78
2021/12/18 12:24:05;;;;;;;15.32;9.52;;;;;;;;;;5091760;28;20324;-76
2021/12/18 12:26:31;;;;;;;15.90;9.88;;;;;;;;;;5091119;28;20052;-76
2021/12/18 12:28:57;;;;;;;16.05;9.88;;;;;;;;;;5092293;28;20047;-77
2021/12/18 12:31:23;;;;;;;16.60;9.77;;;;;;;;;;5091171;28;20127;-78
2021/12/18 12:33:50;;;;;;;16.48;9.98;;;;;;;;;;5090760;28;20055;-79
2021/12/18 12:36:27;;;;;;;15.40;9.95;;;;;;;;;;5090904;28;20044;-77
2021/12/18 12:38:59;;;;;;;18.35;10.32;;;;;;;;;;5091639;28;20052;-78
2021/12/18 12:41:31;;;;;;;18.92;10.07;;;;;;;;;;5091796;28;20040;-75
2021/12/18 12:44:00;;;;;;;16.67;9.50;;;;;;;;;;5090936;28;20050;-79
2021/12/18 12:46:26;;;;;;;17.30;10.63;;;;;;;;;;5091150;28;20109;-77
2021/12/18 12:49:01;;;;;;;16.90;10.90;;;;;;;;;;5090992;28;20048;-77
2021/12/18 12:51:48;;;;;;;17.98;11.48;;;;;;;;;;5090485;28;20479;-78
2021/12/18 12:54:34;;;;;;;18.70;12.02;;;;;;;;;;5091050;28;20541;-75
2021/12/18 12:57:20;;;;;;;19.35;10.98;;;;;;;;;;5073184;28;20052;-76
2021/12/18 12:59:46;;;;;;;19.35;11.63;;;;;;;;;;5086473;28;20072;-75
2021/12/18 13:02:14;;;;;;;17.90;11.40;;;;;;;;;;5088761;28;20043;-77
2021/12/18 13:04:40;;;;;;;18.40;10.88;;;;;;;;;;5089656;28;20093;-77
2021/12/18 13:07:07;;;;;;;17.95;11.80;;;;;;;;;;5089333;28;20048;-77
2021/12/18 13:09:36;;;;;;;20.17;11.38;;;;;;;;;;5083702;28;20127;-78
2021/12/18 13:12:06;;;;;;;16.67;10.65;;;;;;;;;;5082325;28;20052;-77
2021/12/18 13:14:35;;;;;;;19.40;10.93;;;;;;;;;;5090477;28;20051;-77
2021/12/18 13:17:01;;;;;;;17.00;11.18;;;;;;;;;;5089443;28;20140;-77
2021/12/18 13:19:29;;;;;;;17.63;10.55;;;;;;;;;;5089081;28;20036;-76
2021/12/18 13:21:55;;;;;;;15.90;9.48;;;;;;;;;;5089173;28;20052;-75
2021/12/18 13:24:22;;;;;;;19.33;10.05;;;;;;;;;;5089863;28;20151;-76
2021/12/18 13:26:48;;;;;;;15.50;9.68;;;;;;;;;;5089447;28;20036;-79
2021/12/18 13:29:18;;;;;;;17.63;10.10;;;;;;;;;;5089814;28;20052;-79
2021/12/18 13:31:49;;;;;;;16.20;9.52;;;;;;;;;;5090208;28;20147;-77
2021/12/18 13:34:17;;;;;;;16.73;8.93;;;;;;;;;;5090021;28;20048;-78
2021/12/18 13:36:45;;;;;;;15.40;8.88;;;;;;;;;;5089004;28;20123;-80
2021/12/18 13:39:13;;;;;;;17.05;9.10;;;;;;;;;;5089952;28;20456;-79
2021/12/18 13:41:54;;;;;;;16.38;9.05;;;;;;;;;;5084218;28;20052;-79
2021/12/18 13:44:20;;;;;;;14.88;8.85;;;;;;;;;;5076124;28;20462;-81
2021/12/18 13:46:46;;;;;;;14.73;8.48;;;;;;;;;;5083557;28;20075;-78
2021/12/18 13:49:12;;;;;;;13.57;8.57;;;;;;;;;;5081297;28;20513;-79
2021/12/18 13:51:39;;;;;;;16.10;8.57;;;;;;;;;;5076977;28;20044;-76
2021/12/18 13:54:05;;;;;;;13.63;7.97;;;;;;;;;;5069157;28;20049;-74
2021/12/18 13:56:35;;;;;;;13.80;7.63;;;;;;;;;;5095443;28;20042;-78
2021/12/18 13:59:15;;;;;;;15.75;8.25;;;;;;;;;;5087175;28;20090;-77
2021/12/18 14:01:41;;;;;;;;;;;;;;;;;;5088831;28;20044;-78
2021/12/18 14:04:13;;;;;;;11.82;6.88;;;;;;;;;;5089272;28;19920;-76
2021/12/18 14:06:42;;;;;;;12.45;7.13;;;;;;;;;;5088272;28;20413;-76
2021/12/18 14:09:37;;;;;;;13.20;7.32;;;;;;;;;;5089393;28;20048;-75
2021/12/18 14:12:07;;;;;;;10.25;6.38;;;;;;;;;;5079750;28;20410;-76
2021/12/18 14:14:37;;;;;;;15.15;6.65;;;;;;;;;;5081537;28;20073;-75
2021/12/18 14:17:05;;;;;;;11.88;6.85;;;;;;;;;;5086923;28;20044;-73
2021/12/18 14:19:32;;;;;;;13.07;7.10;;;;;;;;;;5079443;28;20047;-74
2021/12/18 14:21:59;;;;;;;11.40;6.47;;;;;;;;;;5081811;28;20097;-74
2021/12/18 14:24:25;;;;;;;12.13;7.18;;;;;;;;;;5087667;28;20517;-74
2021/12/18 14:26:57;;;;;;;11.50;6.22;;;;;;;;;;5088613;28;20055;-74
2021/12/18 14:29:23;;;;;;;11.52;5.68;;;;;;;;;;5088178;28;20101;-75
2021/12/18 14:31:53;;;;;;;12.63;5.78;;;;;;;;;;5070716;28;20075;-78
2021/12/18 14:34:27;;;;;;;9.90;5.85;;;;;;;;;;5088852;28;20573;-76
2021/12/18 14:36:57;;;;;;;10.80;5.65;;;;;;;;;;5088690;28;20101;-75
2021/12/18 14:39:24;;;;;;;14.02;7.00;;;;;;;;;;5087590;28;20047;-76
2021/12/18 14:41:56;;;;;;;12.95;6.65;;;;;;;;;;5087053;28;20048;-78
2021/12/18 14:44:23;;;;;;;11.13;6.15;;;;;;;;;;5078858;28;20052;-79
2021/12/18 14:47:03;;;;;;;11.48;6.40;;;;;;;;;;5075714;28;20040;-76
2021/12/18 14:49:29;;;;;;;15.73;6.88;;;;;;;;;;5080701;28;20126;-76
2021/12/18 14:52:07;;;;;;;11.95;6.43;;;;;;;;;;5081290;28;20052;-77
2021/12/18 14:54:47;;;;;;;12.60;6.05;;;;;;;;;;5087343;28;20052;-77
2021/12/18 14:57:39;;;;;;;11.80;6.00;;;;;;;;;;5087813;28;20047;-75
2021/12/18 15:00:13;;;;;;;10.63;5.45;;;;;;;;;;5088020;28;20531;-76
2021/12/18 15:02:52;;;;;;;13.57;5.78;;;;;;;;;;5070199;28;20044;-76
2021/12/18 15:05:18;;;;;;;12.07;5.88;;;;;;;;;;5073998;28;20135;-75
2021/12/18 15:07:56;;;;;;;10.10;5.70;;;;;;;;;;5068321;28;20083;-77
2021/12/18 15:10:22;;;;;;;10.30;5.15;;;;;;;;;;5072533;28;20091;-78
2021/12/18 15:12:48;;;;;;;11.07;5.80;;;;;;;;;;5086465;28;20054;-78
2021/12/18 15:15:14;;;;;;;10.20;5.70;;;;;;;;;;5088037;28;20040;-77
2021/12/18 15:17:40;;;;;;;12.77;5.85;;;;;;;;;;5083343;28;20112;-78
2021/12/18 15:20:07;;;;;;;9.52;4.90;;;;;;;;;;5088232;28;20044;-77
2021/12/18 15:22:33;;;;;;;11.52;5.65;;;;;;;;;;5087963;28;20044;-78
2021/12/18 15:24:59;;;;;;;11.20;5.88;;;;;;;;;;5087317;28;20085;-78
2021/12/18 15:27:25;;;;;;;12.75;6.43;;;;;;;;;;5088720;28;20074;-77
2021/12/18 15:29:51;;;;;;;18.02;7.78;;;;;;;;;;5087975;28;20051;-76